createdAt,value
2022-12-29T00:00:54.524Z,11.30
2022-12-29T00:02:57.536Z,10.30
2022-12-29T00:05:00.206Z,11.10
2022-12-29T00:07:05.525Z,10.30
2022-12-29T00:09:12.703Z,10.30
2022-12-29T00:11:17.760Z,10.30
2022-12-29T00:13:42.117Z,10.30
2022-12-29T00:15:44.722Z,9.40
2022-12-29T00:17:47.267Z,10.30
2022-12-29T00:20:08.804Z,10.30
2022-12-29T00:22:32.507Z,10.30
2022-12-29T00:24:37.782Z,10.40
2022-12-29T00:26:58.582Z,10.40
2022-12-29T00:29:20.887Z,10.80
2022-12-29T00:31:45.974Z,10.90
2022-12-29T00:34:06.970Z,10.40
2022-12-29T00:36:16.512Z,10.40
2022-12-29T00:38:38.826Z,10.50
2022-12-29T00:41:02.576Z,10.40
2022-12-29T00:43:23.618Z,10.40
2022-12-29T00:45:26.524Z,10.50
2022-12-29T00:47:36.985Z,10.50
2022-12-29T00:49:39.641Z,10.50
2022-12-29T00:51:42.170Z,10.60
2022-12-29T00:53:46.916Z,10.50
2022-12-29T00:55:52.345Z,10.80
2022-12-29T00:57:55.184Z,10.60
2022-12-29T00:59:57.772Z,10.90
2022-12-29T01:02:02.456Z,10.60
2022-12-29T01:04:11.324Z,10.90
2022-12-29T01:06:13.723Z,10.70
2022-12-29T01:08:19.505Z,10.70
2022-12-29T01:10:24.456Z,10.50
2022-12-29T01:12:43.083Z,10.70
2022-12-29T01:14:46.402Z,10.70
2022-12-29T01:16:59.623Z,10.70
2022-12-29T01:19:05.501Z,10.70
2022-12-29T01:21:10.459Z,10.70
2022-12-29T01:23:13.005Z,10.70
2022-12-29T01:25:16.572Z,11.70
2022-12-29T01:27:22.940Z,10.70
2022-12-29T01:29:28.292Z,10.70
2022-12-29T01:31:38.638Z,10.70
2022-12-29T01:33:41.508Z,10.70
2022-12-29T01:35:44.402Z,10.70
2022-12-29T01:37:47.205Z,10.70
2022-12-29T01:39:56.145Z,10.60
2022-12-29T01:41:58.704Z,10.70
2022-12-29T01:44:04.105Z,10.60
2022-12-29T01:46:14.316Z,10.70
2022-12-29T01:48:19.146Z,10.70
2022-12-29T01:50:23.849Z,10.60
2022-12-29T01:52:29.451Z,10.60
2022-12-29T01:54:34.344Z,10.60
2022-12-29T01:56:42.529Z,10.50
2022-12-29T01:58:49.510Z,10.90
2022-12-29T02:00:52.860Z,10.40
2022-12-29T02:02:58.120Z,11.00
2022-12-29T02:05:05.995Z,10.40
2022-12-29T02:07:20.353Z,10.40
2022-12-29T02:09:27.887Z,10.40
2022-12-29T02:11:31.935Z,10.40
2022-12-29T02:13:35.321Z,10.50
2022-12-29T02:15:50.326Z,10.40
2022-12-29T02:18:13.427Z,10.40
2022-12-29T02:20:55.971Z,10.40
2022-12-29T02:23:43.049Z,10.40
2022-12-29T02:26:09.270Z,10.90
2022-12-29T02:28:43.828Z,10.40
2022-12-29T02:30:58.619Z,10.40
2022-12-29T02:33:06.563Z,10.50
2022-12-29T02:35:20.869Z,10.40
2022-12-29T02:37:30.395Z,10.50
2022-12-29T02:39:39.396Z,10.50
2022-12-29T02:41:57.757Z,10.50
2022-12-29T02:44:08.281Z,10.50
2022-12-29T02:46:20.363Z,10.50
2022-12-29T02:48:30.397Z,10.50
2022-12-29T02:50:37.771Z,10.50
2022-12-29T02:52:45.230Z,10.40
2022-12-29T02:54:50.025Z,10.50
2022-12-29T02:56:52.619Z,10.40
2022-12-29T02:58:58.435Z,11.30
2022-12-29T03:01:22.043Z,10.40
2022-12-29T03:03:37.655Z,10.50
2022-12-29T03:05:58.808Z,10.90
2022-12-29T03:08:14.644Z,10.50
2022-12-29T03:10:35.677Z,10.60
2022-12-29T03:13:06.525Z,11.40
2022-12-29T03:15:35.202Z,10.60
2022-12-29T03:17:51.317Z,10.60
2022-12-29T03:20:06.460Z,10.50
2022-12-29T03:22:29.389Z,10.50
2022-12-29T03:24:47.803Z,10.60
2022-12-29T03:26:55.490Z,10.60
2022-12-29T03:28:59.347Z,10.50
2022-12-29T03:31:08.094Z,10.60
2022-12-29T03:33:16.234Z,10.60
2022-12-29T03:35:24.363Z,10.60
2022-12-29T03:37:31.569Z,10.60
2022-12-29T03:39:35.660Z,10.60
2022-12-29T03:41:42.883Z,10.50
2022-12-29T03:43:46.814Z,10.50
2022-12-29T03:45:52.201Z,10.50
2022-12-29T03:47:55.497Z,10.40
2022-12-29T03:50:01.813Z,10.40
2022-12-29T03:52:14.520Z,10.30
2022-12-29T03:54:20.045Z,10.10
2022-12-29T03:56:22.893Z,10.30
2022-12-29T03:58:28.896Z,11.00
2022-12-29T04:00:58.130Z,10.30
2022-12-29T04:03:00.894Z,10.30
2022-12-29T04:05:07.596Z,10.30
2022-12-29T04:07:10.450Z,10.30
2022-12-29T04:09:15.519Z,10.30
2022-12-29T04:11:21.558Z,10.40
2022-12-29T04:13:25.517Z,10.40
2022-12-29T04:15:33.504Z,10.40
2022-12-29T04:17:36.193Z,10.40
2022-12-29T04:19:40.315Z,10.40
2022-12-29T04:21:45.567Z,10.40
2022-12-29T04:23:48.212Z,10.40
2022-12-29T04:25:52.958Z,10.40
2022-12-29T04:27:58.338Z,10.40
2022-12-29T04:30:41.863Z,11.00
2022-12-29T04:32:59.992Z,10.90
2022-12-29T04:35:04.487Z,10.90
2022-12-29T04:37:12.188Z,10.40
2022-12-29T04:39:15.052Z,10.40
2022-12-29T04:41:18.543Z,10.40
2022-12-29T04:43:22.743Z,10.40
2022-12-29T04:46:03.344Z,10.90
2022-12-29T04:48:14.879Z,10.40
2022-12-29T04:50:34.827Z,10.40
2022-12-29T04:53:01.494Z,10.40
2022-12-29T04:55:05.687Z,10.50
2022-12-29T04:57:08.596Z,10.40
2022-12-29T04:59:13.896Z,10.30
2022-12-29T05:01:18.100Z,10.30
2022-12-29T05:03:21.541Z,9.70
2022-12-29T05:05:25.138Z,10.20
2022-12-29T05:07:27.605Z,10.20
2022-12-29T05:09:33.771Z,10.20
2022-12-29T05:11:37.102Z,10.30
2022-12-29T05:13:39.953Z,11.00
2022-12-29T05:15:46.857Z,10.10
2022-12-29T05:17:49.602Z,10.10
2022-12-29T05:19:52.311Z,10.00
2022-12-29T05:21:55.642Z,10.10
2022-12-29T05:23:58.591Z,10.00
2022-12-29T05:26:03.921Z,10.00
2022-12-29T05:28:22.035Z,10.00
2022-12-29T05:30:25.868Z,10.50
2022-12-29T05:32:28.659Z,9.90
2022-12-29T05:34:31.333Z,9.90
2022-12-29T05:36:37.815Z,9.90
2022-12-29T05:38:42.008Z,9.80
2022-12-29T05:40:45.027Z,10.30
2022-12-29T05:43:01.646Z,9.80
2022-12-29T05:45:32.094Z,10.10
2022-12-29T05:47:48.031Z,9.70
2022-12-29T05:50:17.361Z,9.70
2022-12-29T05:52:45.271Z,9.70
2022-12-29T05:54:48.080Z,10.50
2022-12-29T05:56:54.229Z,9.70
2022-12-29T05:58:59.703Z,10.70
2022-12-29T06:01:03.519Z,9.70
2022-12-29T06:03:10.019Z,9.20
2022-12-29T06:05:12.716Z,9.80
2022-12-29T06:07:16.078Z,9.80
2022-12-29T06:09:29.833Z,9.80
2022-12-29T06:11:32.882Z,9.80
2022-12-29T06:13:36.739Z,10.10
2022-12-29T06:15:42.644Z,9.80
2022-12-29T06:17:47.862Z,10.00
2022-12-29T06:19:53.974Z,10.00
2022-12-29T06:21:57.829Z,10.70
2022-12-29T06:24:00.454Z,10.10
2022-12-29T06:26:03.282Z,9.80
2022-12-29T06:28:06.390Z,9.80
2022-12-29T06:30:10.995Z,9.80
2022-12-29T06:32:37.722Z,9.80
2022-12-29T06:35:01.872Z,9.70
2022-12-29T06:37:24.436Z,9.70
2022-12-29T06:39:46.952Z,9.70
2022-12-29T06:42:10.969Z,10.00
2022-12-29T06:45:09.968Z,9.70
2022-12-29T06:47:32.490Z,9.60
2022-12-29T06:49:58.247Z,9.60
2022-12-29T06:52:12.266Z,9.60
2022-12-29T06:54:16.443Z,9.60
2022-12-29T06:56:19.056Z,9.60
2022-12-29T06:58:21.661Z,9.60
2022-12-29T07:00:27.278Z,9.60
2022-12-29T07:02:30.101Z,9.50
2022-12-29T07:04:35.075Z,10.40
2022-12-29T07:06:41.896Z,9.50
2022-12-29T07:08:44.658Z,9.50
2022-12-29T07:10:55.636Z,9.50
2022-12-29T07:12:58.797Z,9.60
2022-12-29T07:15:04.633Z,8.90
2022-12-29T07:17:08.518Z,9.60
2022-12-29T07:19:11.783Z,9.60
2022-12-29T07:21:16.279Z,9.60
2022-12-29T07:23:22.129Z,9.60
2022-12-29T07:25:24.745Z,9.60
2022-12-29T07:27:27.503Z,9.60
2022-12-29T07:29:31.551Z,9.60
2022-12-29T07:31:34.178Z,9.60
2022-12-29T07:33:38.982Z,9.60
2022-12-29T07:35:41.419Z,9.60
2022-12-29T07:37:43.937Z,9.70
2022-12-29T07:39:48.988Z,10.80
2022-12-29T07:41:53.103Z,9.70
2022-12-29T07:43:57.172Z,9.70
2022-12-29T07:46:53.473Z,9.70
2022-12-29T07:48:37.062Z,9.70
2022-12-29T07:50:39.527Z,9.70
2022-12-29T07:52:42.049Z,9.70
2022-12-29T07:54:45.288Z,9.80
2022-12-29T07:56:50.634Z,9.80
2022-12-29T07:58:56.323Z,9.80
2022-12-29T08:00:58.954Z,9.70
2022-12-29T08:03:03.868Z,10.00
2022-12-29T08:05:07.701Z,9.70
2022-12-29T08:07:11.304Z,9.70
2022-12-29T08:09:19.777Z,9.70
2022-12-29T08:11:25.262Z,9.60
2022-12-29T08:13:30.488Z,9.70
2022-12-29T08:15:32.945Z,9.70
2022-12-29T08:17:35.762Z,9.80
2022-12-29T08:19:38.526Z,10.40
2022-12-29T08:21:41.351Z,9.80
2022-12-29T08:23:49.581Z,9.80
2022-12-29T08:25:59.009Z,9.70
2022-12-29T08:28:01.456Z,9.70
2022-12-29T08:30:08.069Z,9.50
2022-12-29T08:32:12.090Z,9.70
2022-12-29T08:34:14.931Z,9.70
2022-12-29T08:36:17.510Z,9.80
2022-12-29T08:38:20.543Z,10.00
2022-12-29T08:40:23.114Z,10.30
2022-12-29T08:42:32.008Z,10.20
2022-12-29T08:44:34.758Z,9.70
2022-12-29T08:46:40.219Z,9.60
2022-12-29T08:48:46.012Z,10.40
2022-12-29T08:50:49.185Z,9.50
2022-12-29T08:52:51.953Z,9.50
2022-12-29T08:54:56.337Z,9.50
2022-12-29T08:56:58.911Z,9.40
2022-12-29T08:59:11.626Z,9.80
2022-12-29T09:01:14.473Z,9.40
2022-12-29T09:03:45.610Z,10.20
2022-12-29T09:05:42.137Z,9.40
2022-12-29T09:07:44.921Z,9.50
2022-12-29T09:09:47.348Z,9.40
2022-12-29T09:11:49.930Z,9.40
2022-12-29T09:14:06.172Z,9.40
2022-12-29T09:16:09.254Z,9.50
2022-12-29T09:18:19.055Z,9.50
2022-12-29T09:20:25.889Z,9.50
2022-12-29T09:22:31.244Z,9.50
2022-12-29T09:24:35.321Z,9.50
2022-12-29T09:26:41.944Z,9.50
2022-12-29T09:28:49.125Z,9.50
2022-12-29T09:30:52.183Z,9.50
2022-12-29T09:32:55.574Z,10.40
2022-12-29T09:35:02.907Z,9.40
2022-12-29T09:37:08.411Z,9.40
2022-12-29T09:39:10.778Z,9.40
2022-12-29T09:41:24.652Z,9.30
2022-12-29T09:43:53.518Z,9.40
2022-12-29T09:46:11.253Z,9.40
2022-12-29T09:51:56.003Z,9.30
2022-12-29T09:54:15.161Z,9.30
2022-12-29T09:56:22.140Z,9.40
2022-12-29T09:58:37.554Z,9.40
2022-12-29T10:00:55.054Z,9.40
2022-12-29T10:03:06.118Z,10.50
2022-12-29T10:05:30.137Z,9.40
2022-12-29T10:11:19.718Z,9.50
2022-12-29T10:13:30.885Z,9.40
2022-12-29T10:15:44.688Z,9.40
2022-12-29T10:17:56.799Z,9.40
2022-12-29T10:20:26.104Z,9.30
2022-12-29T10:22:44.626Z,9.30
2022-12-29T10:24:54.439Z,8.90
2022-12-29T10:27:00.499Z,9.20
2022-12-29T10:29:05.914Z,9.90
2022-12-29T10:31:14.837Z,9.20
2022-12-29T10:33:20.904Z,9.20
2022-12-29T10:35:26.382Z,9.90
2022-12-29T10:37:38.500Z,9.10
2022-12-29T10:39:47.193Z,9.10
2022-12-29T10:41:54.279Z,8.50
2022-12-29T10:44:01.965Z,9.00
2022-12-29T10:46:11.491Z,8.90
2022-12-29T10:48:28.504Z,8.90
2022-12-29T10:50:43.802Z,8.90
2022-12-29T10:52:47.862Z,8.90
2022-12-29T10:54:55.211Z,9.10
2022-12-29T10:57:03.485Z,8.30
2022-12-29T10:59:20.382Z,9.00
2022-12-29T11:01:25.315Z,9.00
2022-12-29T11:04:03.649Z,9.00
2022-12-29T11:06:11.177Z,9.00
2022-12-29T11:08:18.482Z,9.00
2022-12-29T11:10:35.256Z,9.10
2022-12-29T11:12:37.970Z,9.10
2022-12-29T11:14:43.357Z,9.20
2022-12-29T11:16:57.281Z,9.30
2022-12-29T11:19:00.179Z,9.30
2022-12-29T11:21:05.833Z,9.30
2022-12-29T11:23:24.985Z,9.30
2022-12-29T11:25:28.077Z,9.30
2022-12-29T11:27:33.969Z,9.40
2022-12-29T11:29:39.563Z,9.40
2022-12-29T11:31:46.650Z,9.60
2022-12-29T11:33:49.283Z,9.40
2022-12-29T11:35:51.694Z,9.50
2022-12-29T11:37:58.847Z,9.50
2022-12-29T11:40:06.573Z,9.50
2022-12-29T11:42:17.065Z,9.60
2022-12-29T11:44:22.693Z,10.40
2022-12-29T11:46:28.529Z,9.60
2022-12-29T11:48:41.600Z,9.70
2022-12-29T11:51:07.220Z,9.60
2022-12-29T11:53:37.446Z,9.60
2022-12-29T11:56:02.723Z,9.70
2022-12-29T11:58:30.648Z,9.70
2022-12-29T12:00:53.846Z,9.70
2022-12-29T12:03:20.201Z,9.80
2022-12-29T12:05:54.513Z,9.80
2022-12-29T12:08:23.744Z,9.80
2022-12-29T12:10:51.564Z,9.90
2022-12-29T12:13:23.795Z,10.30
2022-12-29T12:15:56.636Z,10.00
2022-12-29T12:18:32.934Z,10.10
2022-12-29T12:21:02.291Z,10.10
2022-12-29T12:23:36.064Z,10.20
2022-12-29T12:26:05.407Z,10.00
2022-12-29T12:28:37.719Z,9.90
2022-12-29T12:31:01.450Z,9.90
2022-12-29T12:33:28.727Z,10.00
2022-12-29T12:36:08.574Z,11.00
2022-12-29T12:38:23.187Z,9.90
2022-12-29T12:40:48.997Z,9.80
2022-12-29T12:43:14.668Z,9.70
2022-12-29T12:45:35.929Z,9.70
2022-12-29T12:47:51.617Z,9.70
2022-12-29T12:50:20.435Z,9.70
2022-12-29T12:52:38.505Z,9.70
2022-12-29T12:54:59.668Z,9.60
2022-12-29T12:57:10.972Z,9.60
2022-12-29T12:59:27.940Z,9.70
2022-12-29T13:01:40.113Z,9.70
2022-12-29T13:04:01.680Z,9.70
2022-12-29T13:06:22.396Z,9.70
2022-12-29T13:08:57.130Z,9.60
2022-12-29T13:11:08.346Z,9.70
2022-12-29T13:13:37.069Z,9.70
2022-12-29T13:15:48.271Z,9.70
2022-12-29T13:17:58.437Z,9.70
2022-12-29T13:20:11.263Z,9.60
2022-12-29T13:22:19.525Z,9.60
2022-12-29T13:24:35.735Z,9.70
2022-12-29T13:26:45.669Z,9.60
2022-12-29T13:28:55.050Z,9.60
2022-12-29T13:31:05.293Z,8.90
2022-12-29T13:33:22.033Z,9.60
2022-12-29T13:35:42.728Z,9.60
2022-12-29T13:37:52.032Z,9.60
2022-12-29T13:40:02.570Z,9.60
2022-12-29T13:42:09.458Z,9.50
2022-12-29T13:44:18.381Z,9.60
2022-12-29T13:46:25.999Z,9.60
2022-12-29T13:48:38.136Z,9.60
2022-12-29T13:50:41.576Z,9.60
2022-12-29T13:52:51.738Z,10.60
2022-12-29T13:55:10.409Z,10.00
2022-12-29T13:57:27.770Z,9.60
2022-12-29T13:59:43.868Z,9.70
2022-12-29T14:01:54.748Z,10.00
2022-12-29T14:04:01.232Z,9.70
2022-12-29T14:06:16.561Z,9.70
2022-12-29T14:08:19.750Z,9.70
2022-12-29T14:10:34.541Z,9.60
2022-12-29T14:12:38.218Z,9.50
2022-12-29T14:14:40.817Z,9.60
2022-12-29T14:16:44.053Z,9.60
2022-12-29T14:18:46.854Z,9.40
2022-12-29T14:20:55.477Z,9.40
2022-12-29T14:23:00.593Z,9.30
2022-12-29T14:25:05.127Z,9.30
2022-12-29T14:27:37.320Z,9.30
2022-12-29T14:29:50.311Z,9.30
2022-12-29T14:31:52.880Z,9.20
2022-12-29T14:34:25.055Z,9.20
2022-12-29T14:36:35.466Z,9.10
2022-12-29T14:38:46.207Z,9.10
2022-12-29T14:40:49.863Z,9.10
2022-12-29T14:42:54.586Z,9.10
2022-12-29T14:45:03.822Z,9.10
2022-12-29T14:47:10.704Z,9.10
2022-12-29T14:49:20.232Z,9.00
2022-12-29T14:51:31.806Z,9.10
2022-12-29T14:53:46.375Z,9.00
2022-12-29T14:55:55.110Z,9.00
2022-12-29T14:58:07.656Z,9.00
2022-12-29T15:00:26.521Z,9.00
2022-12-29T15:02:36.069Z,8.90
2022-12-29T15:04:39.259Z,8.80
2022-12-29T15:06:46.062Z,8.80
2022-12-29T15:08:53.790Z,8.80
2022-12-29T15:11:00.593Z,8.70
2022-12-29T15:13:05.877Z,8.70
2022-12-29T15:15:23.201Z,8.70
2022-12-29T15:17:27.718Z,8.60
2022-12-29T15:19:30.130Z,8.60
2022-12-29T15:21:35.401Z,9.00
2022-12-29T15:23:38.659Z,8.60
2022-12-29T15:25:50.651Z,8.50
2022-12-29T15:27:56.197Z,8.50
2022-12-29T15:30:00.276Z,8.40
2022-12-29T15:32:20.953Z,8.40
2022-12-29T15:34:23.496Z,8.40
2022-12-29T15:36:28.077Z,8.40
2022-12-29T15:38:38.556Z,8.40
2022-12-29T15:40:45.871Z,8.40
2022-12-29T15:42:59.808Z,8.40
2022-12-29T15:45:10.871Z,8.40
2022-12-29T15:47:19.265Z,8.40
2022-12-29T15:49:25.064Z,8.40
2022-12-29T15:51:34.753Z,8.40
2022-12-29T15:53:37.215Z,8.60
2022-12-29T15:55:42.893Z,8.30
2022-12-29T15:57:45.490Z,8.40
2022-12-29T15:59:49.357Z,8.30
2022-12-29T16:01:54.221Z,8.40
2022-12-29T16:04:04.062Z,8.30
2022-12-29T16:06:12.232Z,8.30
2022-12-29T16:08:28.507Z,8.30
2022-12-29T16:10:37.027Z,8.40
2022-12-29T16:12:39.630Z,8.30
2022-12-29T16:14:46.904Z,8.30
2022-12-29T16:16:51.463Z,8.30
2022-12-29T16:18:58.052Z,8.30
2022-12-29T16:21:04.885Z,8.30
2022-12-29T16:23:13.824Z,8.30
2022-12-29T16:25:23.447Z,8.30
2022-12-29T16:27:33.930Z,8.30
2022-12-29T16:29:52.920Z,8.30
2022-12-29T16:32:01.829Z,8.30
2022-12-29T16:34:22.499Z,8.40
2022-12-29T16:36:33.887Z,8.20
2022-12-29T16:38:36.572Z,8.60
2022-12-29T16:40:49.987Z,7.90
2022-12-29T16:42:57.293Z,7.80
2022-12-29T16:45:26.058Z,7.60
2022-12-29T16:47:29.225Z,7.50
2022-12-29T16:49:34.089Z,7.40
2022-12-29T16:51:39.288Z,7.40
2022-12-29T16:53:48.211Z,7.30
2022-12-29T16:55:52.675Z,7.30
2022-12-29T16:57:59.602Z,8.30
2022-12-29T17:00:05.295Z,7.30
2022-12-29T17:02:15.496Z,7.20
2022-12-29T17:04:18.399Z,7.20
2022-12-29T17:06:23.103Z,7.20
2022-12-29T17:08:28.407Z,8.20
2022-12-29T17:10:53.928Z,7.20
2022-12-29T17:12:56.445Z,8.50
2022-12-29T17:15:00.572Z,8.40
2022-12-29T17:17:05.121Z,7.90
2022-12-29T17:19:12.176Z,8.20
2022-12-29T17:21:14.676Z,7.20
2022-12-29T17:23:22.832Z,7.20
2022-12-29T17:25:34.526Z,7.30
2022-12-29T17:27:42.411Z,7.20
2022-12-29T17:29:44.779Z,7.20
2022-12-29T17:31:47.623Z,7.20
2022-12-29T17:33:50.176Z,7.30
2022-12-29T17:35:55.730Z,7.30
2022-12-29T17:37:58.534Z,7.40
2022-12-29T17:40:00.964Z,7.40
2022-12-29T17:42:06.045Z,7.40
2022-12-29T17:44:14.790Z,7.50
2022-12-29T17:46:17.288Z,7.50
2022-12-29T17:48:20.018Z,7.50
2022-12-29T17:50:25.164Z,7.70
2022-12-29T17:52:27.571Z,8.30
2022-12-29T17:54:30.221Z,7.80
2022-12-29T17:56:32.550Z,7.60
2022-12-29T17:58:37.615Z,8.00
2022-12-29T18:00:40.065Z,7.60
2022-12-29T18:02:44.925Z,7.60
2022-12-29T18:04:47.250Z,7.60
2022-12-29T18:06:49.561Z,7.70
2022-12-29T18:08:51.936Z,7.60
2022-12-29T18:10:55.249Z,7.60
2022-12-29T18:13:00.441Z,8.30
2022-12-29T18:15:07.625Z,7.60
2022-12-29T18:17:14.892Z,7.60
2022-12-29T18:19:17.343Z,8.40
2022-12-29T18:21:21.676Z,7.60
2022-12-29T18:23:25.507Z,7.60
2022-12-29T18:25:38.352Z,8.50
2022-12-29T18:27:40.822Z,7.60
2022-12-29T18:29:47.020Z,7.60
2022-12-29T18:31:52.190Z,7.70
2022-12-29T18:33:56.269Z,8.30
2022-12-29T18:36:01.040Z,7.70
2022-12-29T18:38:03.463Z,7.70
2022-12-29T18:40:08.529Z,7.70
2022-12-29T18:42:17.822Z,7.60
2022-12-29T18:44:21.707Z,7.60
2022-12-29T18:46:24.202Z,7.60
2022-12-29T18:48:29.435Z,7.60
2022-12-29T18:50:31.904Z,7.60
2022-12-29T18:52:34.395Z,8.90
2022-12-29T18:54:36.961Z,7.60
2022-12-29T18:56:39.668Z,7.60
2022-12-29T18:58:42.218Z,7.60
2022-12-29T19:00:45.300Z,7.60
2022-12-29T19:02:49.226Z,7.60
2022-12-29T19:05:00.894Z,7.60
2022-12-29T19:07:06.336Z,7.60
2022-12-29T19:09:08.777Z,7.60
2022-12-29T19:11:11.267Z,7.60
2022-12-29T19:13:17.461Z,8.70
2022-12-29T19:15:24.595Z,7.90
2022-12-29T19:17:27.022Z,7.60
2022-12-29T19:19:29.492Z,7.60
2022-12-29T19:21:34.549Z,7.60
2022-12-29T19:23:36.949Z,7.90
2022-12-29T19:25:39.879Z,7.60
2022-12-29T19:27:42.213Z,7.60
2022-12-29T19:29:44.710Z,8.30
2022-12-29T19:31:47.166Z,7.60
2022-12-29T19:33:49.863Z,7.50
2022-12-29T19:35:52.578Z,7.60
2022-12-29T19:37:58.082Z,7.60
2022-12-29T19:40:00.546Z,7.60
2022-12-29T19:42:05.518Z,7.50
2022-12-29T19:44:10.955Z,7.50
2022-12-29T19:46:17.045Z,7.50
2022-12-29T19:48:20.651Z,7.50
2022-12-29T19:50:23.166Z,7.50
2022-12-29T19:52:26.750Z,7.50
2022-12-29T19:54:31.872Z,7.40
2022-12-29T19:56:34.277Z,7.40
2022-12-29T19:58:41.516Z,7.40
2022-12-29T20:00:46.419Z,7.40
2022-12-29T20:02:50.052Z,7.40
2022-12-29T20:04:53.094Z,7.40
2022-12-29T20:06:55.490Z,7.30
2022-12-29T20:08:57.874Z,7.30
2022-12-29T20:11:05.290Z,7.30
2022-12-29T20:13:07.923Z,7.40
2022-12-29T20:15:12.417Z,7.30
2022-12-29T20:17:27.273Z,7.40
2022-12-29T20:19:39.427Z,7.40
2022-12-29T20:21:44.586Z,7.40
2022-12-29T20:23:47.685Z,7.40
2022-12-29T20:25:56.848Z,7.40
2022-12-29T20:28:01.916Z,7.50
2022-12-29T20:30:05.156Z,7.40
2022-12-29T20:32:08.857Z,7.40
2022-12-29T20:34:11.495Z,7.40
2022-12-29T20:36:17.136Z,7.90
2022-12-29T20:38:20.207Z,7.40
2022-12-29T20:40:22.835Z,7.30
2022-12-29T20:42:27.485Z,7.90
2022-12-29T20:44:33.882Z,7.30
2022-12-29T20:46:43.240Z,7.30
2022-12-29T20:48:46.711Z,7.30
2022-12-29T20:50:59.431Z,7.30
2022-12-29T20:53:05.506Z,7.20
2022-12-29T20:55:08.402Z,7.20
2022-12-29T20:57:11.122Z,7.20
2022-12-29T20:59:29.740Z,8.20
2022-12-29T21:01:35.321Z,7.50
2022-12-29T21:03:38.972Z,7.20
2022-12-29T21:05:41.590Z,7.20
2022-12-29T21:07:44.722Z,6.50
2022-12-29T21:09:47.125Z,7.20
2022-12-29T21:11:49.755Z,7.20
2022-12-29T21:13:52.556Z,7.10
2022-12-29T21:15:57.020Z,7.10
2022-12-29T21:18:02.369Z,7.60
2022-12-29T21:20:05.428Z,7.20
2022-12-29T21:22:08.420Z,7.20
2022-12-29T21:24:11.104Z,7.20
2022-12-29T21:26:16.759Z,7.20
2022-12-29T21:28:19.870Z,7.20
2022-12-29T21:30:22.289Z,7.20
2022-12-29T21:32:24.762Z,7.30
2022-12-29T21:34:30.535Z,7.30
2022-12-29T21:36:37.136Z,7.30
2022-12-29T21:38:42.405Z,7.30
2022-12-29T21:40:45.039Z,7.30
2022-12-29T21:42:50.682Z,7.30
2022-12-29T21:45:18.349Z,7.30
2022-12-29T21:47:25.142Z,8.30
2022-12-29T21:49:33.064Z,7.30
2022-12-29T21:51:54.254Z,7.00
2022-12-29T21:54:18.268Z,7.30
2022-12-29T21:56:22.618Z,7.30
2022-12-29T21:58:44.020Z,7.30
2022-12-29T22:01:05.288Z,7.20
2022-12-29T22:03:26.701Z,7.20
2022-12-29T22:05:56.709Z,7.20
2022-12-29T22:08:33.536Z,7.20
2022-12-29T22:11:00.986Z,7.30
2022-12-29T22:13:04.140Z,7.20
2022-12-29T22:15:16.454Z,7.90
2022-12-29T22:17:27.832Z,7.20
2022-12-29T22:19:31.370Z,7.20
2022-12-29T22:21:36.548Z,7.20
2022-12-29T22:23:46.157Z,6.30
2022-12-29T22:25:50.073Z,7.10
2022-12-29T22:27:59.466Z,7.10
2022-12-29T22:30:04.316Z,7.10
2022-12-29T22:32:06.764Z,7.10
2022-12-29T22:34:10.990Z,7.20
2022-12-29T22:36:13.601Z,7.80
2022-12-29T22:38:18.879Z,8.20
2022-12-29T22:40:21.417Z,7.10
2022-12-29T22:42:23.875Z,7.10
2022-12-29T22:44:26.247Z,7.10
2022-12-29T22:46:35.235Z,7.10
2022-12-29T22:48:37.838Z,7.10
2022-12-29T22:50:40.454Z,7.00
2022-12-29T22:52:42.898Z,7.00
2022-12-29T22:54:47.912Z,7.50
2022-12-29T22:56:50.605Z,6.90
2022-12-29T22:58:53.339Z,6.90
2022-12-29T23:00:58.499Z,6.80
2022-12-29T23:03:01.028Z,7.30
2022-12-29T23:05:05.237Z,6.80
2022-12-29T23:07:15.088Z,6.80
2022-12-29T23:09:20.026Z,6.80
2022-12-29T23:11:25.723Z,6.80
2022-12-29T23:13:29.047Z,6.80
2022-12-29T23:15:33.994Z,6.80
2022-12-29T23:17:36.424Z,6.80
2022-12-29T23:19:38.867Z,6.90
2022-12-29T23:21:43.841Z,6.80
2022-12-29T23:23:56.302Z,6.80
2022-12-29T23:26:00.809Z,7.80
2022-12-29T23:28:08.481Z,6.80
2022-12-29T23:30:11.664Z,6.80
2022-12-29T23:32:14.102Z,6.80
2022-12-29T23:34:17.757Z,7.90
2022-12-29T23:36:20.211Z,7.20
2022-12-29T23:38:22.877Z,6.70
2022-12-29T23:40:25.315Z,6.70
2022-12-29T23:42:27.944Z,7.10
2022-12-29T23:44:33.728Z,7.50
2022-12-29T23:46:37.085Z,6.70
2022-12-29T23:48:42.323Z,6.70
2022-12-29T23:50:47.533Z,6.70
2022-12-29T23:52:49.866Z,6.60
2022-12-29T23:54:54.959Z,6.60
2022-12-29T23:56:57.453Z,6.60
2022-12-29T23:58:59.833Z,6.60
